createdAt,value
2022-09-20T00:01:32.923Z,0.90
2022-09-20T00:04:05.184Z,0.90
2022-09-20T00:06:34.024Z,1.05
2022-09-20T00:09:03.163Z,0.90
2022-09-20T00:11:33.338Z,1.00
2022-09-20T00:14:02.066Z,0.80
2022-09-20T00:16:39.224Z,1.20
2022-09-20T00:19:08.185Z,0.90
2022-09-20T00:21:38.001Z,0.90
2022-09-20T00:24:06.194Z,0.85
2022-09-20T00:26:33.891Z,1.13
2022-09-20T00:29:01.662Z,0.90
2022-09-20T00:31:29.397Z,0.90
2022-09-20T00:34:15.998Z,1.13
2022-09-20T00:36:43.919Z,0.93
2022-09-20T00:39:13.382Z,0.90
2022-09-20T00:41:40.409Z,1.05
2022-09-20T00:44:47.996Z,0.98
2022-09-20T00:47:22.284Z,1.08
2022-09-20T00:49:52.128Z,0.95
2022-09-20T00:52:20.773Z,0.80
2022-09-20T00:54:48.993Z,1.00
2022-09-20T00:57:16.147Z,0.93
2022-09-20T00:59:48.184Z,1.10
2022-09-20T01:02:30.919Z,1.00
2022-09-20T01:04:59.507Z,0.90
2022-09-20T01:07:27.473Z,1.08
2022-09-20T01:09:55.148Z,0.82
2022-09-20T01:12:26.579Z,1.25
2022-09-20T01:14:55.549Z,1.10
2022-09-20T01:17:26.712Z,0.90
2022-09-20T01:19:56.852Z,1.02
2022-09-20T01:22:42.168Z,1.00
2022-09-20T01:25:23.464Z,0.80
2022-09-20T01:27:53.154Z,1.10
2022-09-20T01:30:39.359Z,1.08
2022-09-20T01:33:26.044Z,0.98
2022-09-20T01:35:55.307Z,1.08
2022-09-20T01:39:13.168Z,1.05
2022-09-20T01:41:46.951Z,1.05
2022-09-20T01:44:37.241Z,0.93
2022-09-20T01:47:17.346Z,0.95
2022-09-20T01:49:56.426Z,1.10
2022-09-20T01:52:35.863Z,1.17
2022-09-20T01:55:15.370Z,0.88
2022-09-20T01:58:03.221Z,1.10
2022-09-20T02:01:21.373Z,1.00
2022-09-20T02:04:13.093Z,0.90
2022-09-20T02:07:01.895Z,1.35
2022-09-20T02:09:44.369Z,2.70
2022-09-20T02:12:20.380Z,1.30
2022-09-20T02:15:19.738Z,1.13
2022-09-20T02:18:17.397Z,0.93
2022-09-20T02:20:59.148Z,1.10
2022-09-20T02:23:47.945Z,1.00
2022-09-20T02:26:26.367Z,1.20
2022-09-20T02:29:11.725Z,0.95
2022-09-20T02:32:03.655Z,1.33
2022-09-20T02:34:30.714Z,1.20
2022-09-20T02:37:34.491Z,1.00
2022-09-20T02:43:10.360Z,1.20
2022-09-20T02:45:45.845Z,1.23
2022-09-20T02:48:19.458Z,1.23
2022-09-20T02:51:02.067Z,1.27
2022-09-20T02:53:37.098Z,1.25
2022-09-20T02:56:33.087Z,1.23
2022-09-20T02:59:28.551Z,1.00
2022-09-20T03:02:30.987Z,1.15
2022-09-20T03:05:01.221Z,1.15
2022-09-20T03:07:32.699Z,1.20
2022-09-20T03:10:05.917Z,1.13
2022-09-20T03:12:51.557Z,1.30
2022-09-20T03:15:54.300Z,1.05
2022-09-20T03:18:37.587Z,1.42
2022-09-20T03:23:56.120Z,1.20
2022-09-20T03:26:59.994Z,1.10
2022-09-20T03:29:47.207Z,1.00
2022-09-20T03:32:48.412Z,1.10
2022-09-20T03:35:38.130Z,1.17
2022-09-20T03:38:44.152Z,1.55
2022-09-20T03:41:33.490Z,1.00
2022-09-20T03:44:19.751Z,1.33
2022-09-20T03:46:48.382Z,1.33
2022-09-20T03:49:37.381Z,1.42
2022-09-20T03:52:27.243Z,1.80
2022-09-20T03:55:15.532Z,1.17
2022-09-20T03:58:08.624Z,1.10
2022-09-20T04:01:06.117Z,1.65
2022-09-20T04:04:04.602Z,1.20
2022-09-20T04:06:48.525Z,1.20
2022-09-20T04:09:35.101Z,1.25
2022-09-20T04:12:13.861Z,0.98
2022-09-20T04:14:50.602Z,1.30
2022-09-20T04:17:20.838Z,1.70
2022-09-20T04:20:29.109Z,1.33
2022-09-20T04:22:59.451Z,1.20
2022-09-20T04:25:43.599Z,1.50
2022-09-20T04:28:34.874Z,1.50
2022-09-20T04:31:20.136Z,1.50
2022-09-20T04:33:54.148Z,1.27
2022-09-20T04:36:38.606Z,1.23
2022-09-20T04:39:27.756Z,1.40
2022-09-20T04:42:24.023Z,1.35
2022-09-20T04:45:31.115Z,1.30
2022-09-20T04:48:18.412Z,1.38
2022-09-20T04:50:45.378Z,1.25
2022-09-20T04:53:45.048Z,1.20
2022-09-20T04:56:22.117Z,1.40
2022-09-20T04:59:10.712Z,1.20
2022-09-20T05:01:55.805Z,1.55
2022-09-20T05:04:56.891Z,1.27
2022-09-20T05:07:44.254Z,1.20
2022-09-20T05:10:53.328Z,2.05
2022-09-20T05:13:54.001Z,1.38
2022-09-20T05:16:29.759Z,1.52
2022-09-20T05:18:59.519Z,1.00
2022-09-20T05:21:29.743Z,1.42
2022-09-20T05:24:23.067Z,1.60
2022-09-20T05:27:04.329Z,1.30
2022-09-20T05:29:43.411Z,1.50
2022-09-20T05:32:34.992Z,1.40
2022-09-20T05:35:12.626Z,1.40
2022-09-20T05:38:00.873Z,2.40
2022-09-20T05:41:10.768Z,1.67
2022-09-20T05:44:12.877Z,1.40
2022-09-20T05:47:14.129Z,1.23
2022-09-20T05:50:00.052Z,1.40
2022-09-20T05:52:45.710Z,1.42
2022-09-20T05:55:30.829Z,1.45
2022-09-20T05:58:16.247Z,1.63
2022-09-20T06:00:51.576Z,1.50
2022-09-20T06:03:48.753Z,1.90
2022-09-20T06:06:32.571Z,1.55
2022-09-20T06:09:19.577Z,1.88
2022-09-20T06:12:13.592Z,1.90
2022-09-20T06:15:03.625Z,1.40
2022-09-20T06:17:45.452Z,1.52
2022-09-20T06:20:27.744Z,1.30
2022-09-20T06:22:57.492Z,2.73
2022-09-20T06:25:45.384Z,1.80
2022-09-20T06:28:21.335Z,1.17
2022-09-20T06:30:52.093Z,1.30
2022-09-20T06:33:26.922Z,1.42
2022-09-20T06:36:27.767Z,1.33
2022-09-20T06:39:48.654Z,1.15
2022-09-20T06:42:16.415Z,1.30
2022-09-20T06:44:43.552Z,1.60
2022-09-20T06:47:12.069Z,1.60
2022-09-20T06:49:41.375Z,1.45
2022-09-20T06:52:14.998Z,1.50
2022-09-20T06:54:47.209Z,2.25
2022-09-20T06:57:23.065Z,1.70
2022-09-20T06:59:50.405Z,1.23
2022-09-20T07:02:17.971Z,1.48
2022-09-20T07:04:45.328Z,1.33
2022-09-20T07:07:19.131Z,1.35
2022-09-20T07:09:47.021Z,1.58
2022-09-20T07:12:14.142Z,1.55
2022-09-20T07:14:42.886Z,1.10
2022-09-20T07:17:10.219Z,1.15
2022-09-20T07:19:37.488Z,1.13
2022-09-20T07:22:04.670Z,1.33
2022-09-20T07:24:32.399Z,1.52
2022-09-20T07:27:02.225Z,1.63
2022-09-20T07:29:30.223Z,1.30
2022-09-20T07:31:58.958Z,1.17
2022-09-20T07:34:27.403Z,0.80
2022-09-20T07:36:55.036Z,1.13
2022-09-20T07:39:22.518Z,1.63
2022-09-20T07:41:50.823Z,1.10
2022-09-20T07:44:22.638Z,1.52
2022-09-20T07:46:54.480Z,1.30
2022-09-20T07:49:23.627Z,1.45
2022-09-20T07:51:50.930Z,1.05
2022-09-20T07:54:18.788Z,1.10
2022-09-20T07:56:48.490Z,1.10
2022-09-20T07:59:18.746Z,1.25
2022-09-20T08:01:48.599Z,1.30
2022-09-20T08:04:16.137Z,1.23
2022-09-20T08:06:45.190Z,1.20
2022-09-20T08:09:13.784Z,1.30
2022-09-20T08:11:42.938Z,1.48
2022-09-20T08:14:18.191Z,1.35
2022-09-20T08:16:48.922Z,1.00
2022-09-20T08:19:21.868Z,1.52
2022-09-20T08:24:21.440Z,1.23
2022-09-20T08:26:48.956Z,1.70
2022-09-20T08:29:16.455Z,1.10
2022-09-20T08:31:44.183Z,1.63
2022-09-20T08:34:15.321Z,1.38
2022-09-20T08:36:46.469Z,2.17
2022-09-20T08:42:25.089Z,0.80
2022-09-20T08:44:58.921Z,0.88
2022-09-20T08:47:31.371Z,1.17
2022-09-20T08:50:00.906Z,1.00
2022-09-20T08:52:36.963Z,1.10
2022-09-20T08:55:23.289Z,1.42
2022-09-20T08:57:56.407Z,1.52
2022-09-20T09:00:26.827Z,1.65
2022-09-20T09:03:07.403Z,1.40
2022-09-20T09:05:47.929Z,1.10
2022-09-20T09:08:19.341Z,1.40
2022-09-20T09:10:54.857Z,1.30
2022-09-20T09:14:02.199Z,1.60
2022-09-20T09:16:35.496Z,1.52
2022-09-20T09:19:34.336Z,1.73
2022-09-20T09:22:04.411Z,1.42
2022-09-20T09:24:31.678Z,1.20
2022-09-20T09:27:08.070Z,1.27
2022-09-20T09:29:36.057Z,1.33
2022-09-20T09:32:31.332Z,1.15
2022-09-20T09:35:24.892Z,2.03
2022-09-20T09:38:00.953Z,1.40
2022-09-20T09:40:32.613Z,1.20
2022-09-20T09:43:02.778Z,1.02
2022-09-20T09:45:31.788Z,1.10
2022-09-20T09:48:00.814Z,1.33
2022-09-20T09:50:32.001Z,1.15
2022-09-20T09:53:23.062Z,1.17
2022-09-20T09:55:52.888Z,1.20
2022-09-20T09:58:49.392Z,1.42
2022-09-20T10:01:33.642Z,1.17
2022-09-20T10:04:10.067Z,1.10
2022-09-20T10:06:52.466Z,1.40
2022-09-20T10:09:42.782Z,1.58
2022-09-20T10:12:34.389Z,1.33
2022-09-20T10:15:07.334Z,1.48
2022-09-20T10:20:44.161Z,1.63
2022-09-20T10:24:01.339Z,2.10
2022-09-20T10:26:51.696Z,1.88
2022-09-20T10:29:33.760Z,1.75
2022-09-20T10:32:19.106Z,1.40
2022-09-20T10:35:11.924Z,1.60
2022-09-20T10:38:20.301Z,1.30
2022-09-20T10:41:18.258Z,1.20
2022-09-20T10:44:05.507Z,1.10
2022-09-20T10:46:52.723Z,1.13
2022-09-20T10:50:08.178Z,1.35
2022-09-20T10:52:49.440Z,1.00
2022-09-20T10:55:47.389Z,1.20
2022-09-20T10:58:35.673Z,1.40
2022-09-20T11:01:24.463Z,1.10
2022-09-20T11:04:10.360Z,1.10
2022-09-20T11:07:04.360Z,1.38
2022-09-20T11:09:38.102Z,1.30
2022-09-20T11:12:24.916Z,1.48
2022-09-20T11:15:30.465Z,1.08
2022-09-20T11:18:15.409Z,1.10
2022-09-20T11:20:50.859Z,1.23
2022-09-20T11:23:26.509Z,1.10
2022-09-20T11:25:58.831Z,1.13
2022-09-20T11:28:26.065Z,1.10
2022-09-20T11:31:05.291Z,1.40
2022-09-20T11:34:16.070Z,1.40
2022-09-20T11:36:53.176Z,1.10
2022-09-20T11:39:51.739Z,1.38
2022-09-20T11:42:27.855Z,1.23
2022-09-20T11:44:55.902Z,1.77
2022-09-20T11:47:52.879Z,1.98
2022-09-20T11:50:35.944Z,1.25
2022-09-20T11:53:21.744Z,1.50
2022-09-20T11:56:13.695Z,1.40
2022-09-20T11:58:55.563Z,1.50
2022-09-20T12:01:42.972Z,1.80
2022-09-20T12:04:32.985Z,2.28
2022-09-20T12:07:28.323Z,2.03
2022-09-20T12:10:03.958Z,1.17
2022-09-20T12:12:51.207Z,1.70
2022-09-20T12:15:26.790Z,2.03
2022-09-20T12:17:57.399Z,1.50
2022-09-20T12:20:39.826Z,1.55
2022-09-20T12:23:40.332Z,2.20
2022-09-20T12:26:20.962Z,2.42
2022-09-20T12:28:59.321Z,1.50
2022-09-20T12:31:29.382Z,1.60
2022-09-20T12:34:10.253Z,1.60
2022-09-20T12:36:40.090Z,1.30
2022-09-20T12:39:22.562Z,1.90
2022-09-20T12:42:02.637Z,1.30
2022-09-20T12:44:47.102Z,1.50
2022-09-20T12:47:23.654Z,1.40
2022-09-20T12:50:11.581Z,1.70
2022-09-20T12:52:58.333Z,1.25
2022-09-20T12:55:47.190Z,1.55
2022-09-20T12:58:17.304Z,1.30
2022-09-20T13:01:11.904Z,1.65
2022-09-20T13:03:45.236Z,1.15
2022-09-20T13:06:16.760Z,1.60
2022-09-20T13:08:48.469Z,2.15
2022-09-20T13:11:19.444Z,1.90
2022-09-20T13:14:04.898Z,1.75
2022-09-20T13:16:53.063Z,1.70
2022-09-20T13:19:45.424Z,1.83
2022-09-20T13:22:51.302Z,2.13
2022-09-20T13:25:21.559Z,1.80
2022-09-20T13:28:21.000Z,2.05
2022-09-20T13:30:49.001Z,2.00
2022-09-20T13:33:23.473Z,1.88
2022-09-20T13:35:54.697Z,1.80
2022-09-20T13:38:31.994Z,2.17
2022-09-20T13:41:13.199Z,2.72
2022-09-20T13:43:43.692Z,2.47
2022-09-20T13:46:25.508Z,2.00
2022-09-20T13:49:07.137Z,2.20
2022-09-20T13:51:35.298Z,2.05
2022-09-20T13:54:29.004Z,1.60
2022-09-20T13:57:00.061Z,2.05
2022-09-20T13:59:31.956Z,1.98
2022-09-20T14:01:59.551Z,1.77
2022-09-20T14:04:29.888Z,1.90
2022-09-20T14:07:00.975Z,2.05
2022-09-20T14:09:34.273Z,2.00
2022-09-20T14:12:03.273Z,2.92
2022-09-20T14:14:33.309Z,2.20
2022-09-20T14:17:04.498Z,1.90
2022-09-20T14:19:58.494Z,2.00
2022-09-20T14:22:28.705Z,2.15
2022-09-20T14:25:18.711Z,2.50
2022-09-20T14:27:45.884Z,3.15
2022-09-20T14:30:33.402Z,2.75
2022-09-20T14:33:01.324Z,2.83
2022-09-20T14:35:29.077Z,3.38
2022-09-20T14:38:08.882Z,2.25
2022-09-20T14:40:46.494Z,2.60
2022-09-20T14:43:28.761Z,2.72
2022-09-20T14:46:11.234Z,2.42
2022-09-20T14:48:42.862Z,2.60
2022-09-20T14:51:16.404Z,2.58
2022-09-20T14:53:48.630Z,2.35
2022-09-20T14:56:17.019Z,2.70
2022-09-20T14:59:03.450Z,2.45
2022-09-20T15:01:32.068Z,1.88
2022-09-20T15:03:59.408Z,2.10
2022-09-20T15:06:26.507Z,2.08
2022-09-20T15:08:56.594Z,2.30
2022-09-20T15:11:24.084Z,1.92
2022-09-20T15:13:51.065Z,1.70
2022-09-20T15:16:20.674Z,2.20
2022-09-20T15:18:48.003Z,2.33
2022-09-20T15:21:15.189Z,2.85
2022-09-20T15:23:42.496Z,2.30
2022-09-20T15:26:13.342Z,1.92
2022-09-20T15:28:40.406Z,2.20
2022-09-20T15:31:07.671Z,2.10
2022-09-20T15:33:34.758Z,2.55
2022-09-20T15:36:03.536Z,3.15
2022-09-20T15:38:30.810Z,2.33
2022-09-20T15:41:00.880Z,2.38
2022-09-20T15:43:30.415Z,2.47
2022-09-20T15:46:03.419Z,2.75
2022-09-20T15:48:30.914Z,2.78
2022-09-20T15:51:02.048Z,3.17
2022-09-20T15:53:32.033Z,3.25
2022-09-20T15:56:03.057Z,2.63
2022-09-20T15:58:35.902Z,3.15
2022-09-20T16:01:06.106Z,5.05
2022-09-20T16:03:34.662Z,7.60
2022-09-20T16:06:07.079Z,7.63
2022-09-20T16:08:40.769Z,6.55
2022-09-20T16:11:10.920Z,6.78
2022-09-20T16:13:38.936Z,6.60
2022-09-20T16:16:08.709Z,6.05
2022-09-20T16:18:55.827Z,5.00
2022-09-20T16:21:23.470Z,4.75
2022-09-20T16:23:56.307Z,4.88
2022-09-20T16:26:26.187Z,6.75
2022-09-20T16:28:55.877Z,6.95
2022-09-20T16:31:34.890Z,7.38
2022-09-20T16:34:04.172Z,8.18
2022-09-20T16:36:34.730Z,9.45
2022-09-20T16:39:03.332Z,8.43
2022-09-20T16:41:32.561Z,8.00
2022-09-20T16:43:59.977Z,8.25
2022-09-20T16:46:28.053Z,8.65
2022-09-20T16:48:58.171Z,6.85
2022-09-20T16:51:30.171Z,6.18
2022-09-20T16:53:57.260Z,5.50
2022-09-20T16:56:30.035Z,5.90
2022-09-20T16:58:57.321Z,7.10
2022-09-20T17:01:24.502Z,6.60
2022-09-20T17:03:52.174Z,6.85
2022-09-20T17:06:19.849Z,7.63
2022-09-20T17:08:48.784Z,7.40
2022-09-20T17:11:19.626Z,7.60
2022-09-20T17:13:47.489Z,7.82
2022-09-20T17:16:16.676Z,6.72
2022-09-20T17:18:43.892Z,7.07
2022-09-20T17:21:14.051Z,7.22
2022-09-20T17:23:51.117Z,7.97
2022-09-20T17:26:33.385Z,8.77
2022-09-20T17:29:02.435Z,7.85
2022-09-20T17:31:35.777Z,7.30
2022-09-20T17:34:05.136Z,8.38
2022-09-20T17:36:34.854Z,7.35
2022-09-20T17:39:04.446Z,8.65
2022-09-20T17:41:33.848Z,7.30
2022-09-20T17:44:08.312Z,9.95
2022-09-20T17:46:37.831Z,9.25
2022-09-20T17:49:10.264Z,8.55
2022-09-20T17:51:40.685Z,8.45
2022-09-20T17:54:11.003Z,8.85
2022-09-20T17:56:38.773Z,8.70
2022-09-20T17:59:10.150Z,8.35
2022-09-20T18:01:42.082Z,8.57
2022-09-20T18:04:10.291Z,10.73
2022-09-20T18:06:44.745Z,10.43
2022-09-20T18:09:15.816Z,10.18
2022-09-20T18:11:49.655Z,9.73
2022-09-20T18:14:27.709Z,9.43
2022-09-20T18:16:58.185Z,8.85
2022-09-20T18:19:32.946Z,9.18
2022-09-20T18:22:02.411Z,9.10
2022-09-20T18:24:30.531Z,9.25
2022-09-20T18:26:57.811Z,9.18
2022-09-20T18:29:25.239Z,7.60
2022-09-20T18:31:54.667Z,8.13
2022-09-20T18:34:26.927Z,8.98
2022-09-20T18:36:56.331Z,9.13
2022-09-20T18:39:25.340Z,8.32
2022-09-20T18:41:53.436Z,9.18
2022-09-20T18:44:22.178Z,8.73
2022-09-20T18:46:51.381Z,9.00
2022-09-20T18:49:18.679Z,10.40
2022-09-20T18:51:47.513Z,9.48
2022-09-20T18:54:15.547Z,8.57
2022-09-20T18:56:45.098Z,8.25
2022-09-20T18:59:21.165Z,9.15
2022-09-20T19:02:11.919Z,9.13
2022-09-20T19:05:05.843Z,8.18
2022-09-20T19:07:48.706Z,7.78
2022-09-20T19:10:42.276Z,8.23
2022-09-20T19:16:11.369Z,8.35
2022-09-20T19:19:03.147Z,9.10
2022-09-20T19:22:17.687Z,9.10
2022-09-20T19:25:01.508Z,9.02
2022-09-20T19:27:30.870Z,8.32
2022-09-20T19:29:58.205Z,8.43
2022-09-20T19:32:28.263Z,7.90
2022-09-20T19:38:04.249Z,9.25
2022-09-20T19:41:09.486Z,9.23
2022-09-20T19:44:04.459Z,9.60
2022-09-20T19:47:01.446Z,9.52
2022-09-20T19:49:51.300Z,9.85
2022-09-20T19:52:19.059Z,10.00
2022-09-20T19:54:46.881Z,9.45
2022-09-20T19:57:29.233Z,10.13
2022-09-20T19:59:58.088Z,10.57
2022-09-20T20:02:25.400Z,9.20
2022-09-20T20:04:54.058Z,9.10
2022-09-20T20:07:38.701Z,8.38
2022-09-20T20:10:21.039Z,8.27
2022-09-20T20:13:33.919Z,7.78
2022-09-20T20:16:43.930Z,8.40
2022-09-20T20:19:39.148Z,8.25
2022-09-20T20:22:30.494Z,8.93
2022-09-20T20:25:03.918Z,8.85
2022-09-20T20:27:41.841Z,9.35
2022-09-20T20:30:12.834Z,8.50
2022-09-20T20:32:42.564Z,8.25
2022-09-20T20:35:15.173Z,8.57
2022-09-20T20:37:42.594Z,8.55
2022-09-20T20:40:14.988Z,9.23
2022-09-20T20:42:42.974Z,8.80
2022-09-20T20:45:11.892Z,8.23
2022-09-20T20:47:42.759Z,8.48
2022-09-20T20:50:12.903Z,10.43
2022-09-20T20:52:40.126Z,10.40
2022-09-20T20:55:07.854Z,10.30
2022-09-20T20:57:36.195Z,9.07
2022-09-20T21:00:03.782Z,8.27
2022-09-20T21:02:32.908Z,9.18
2022-09-20T21:05:01.354Z,9.52
2022-09-20T21:07:28.799Z,9.65
2022-09-20T21:09:55.812Z,9.55
2022-09-20T21:12:23.807Z,9.48
2022-09-20T21:14:50.883Z,9.38
2022-09-20T21:17:18.055Z,9.02
2022-09-20T21:19:45.157Z,10.02
2022-09-20T21:22:12.206Z,9.63
2022-09-20T21:24:39.203Z,9.30
2022-09-20T21:27:06.210Z,10.20
2022-09-20T21:29:33.832Z,9.13
2022-09-20T21:32:00.972Z,10.13
2022-09-20T21:34:27.916Z,10.80
2022-09-20T21:36:55.015Z,9.50
2022-09-20T21:39:21.970Z,10.57
2022-09-20T21:41:49.181Z,10.15
2022-09-20T21:44:17.723Z,9.93
2022-09-20T21:46:44.982Z,10.52
2022-09-20T21:49:12.629Z,10.88
2022-09-20T21:51:42.831Z,11.02
2022-09-20T21:54:10.185Z,10.60
2022-09-20T21:56:38.641Z,9.77
2022-09-20T21:59:07.225Z,11.48
2022-09-20T22:01:37.036Z,11.82
2022-09-20T22:04:07.094Z,11.80
2022-09-20T22:06:42.471Z,12.38
2022-09-20T22:09:12.304Z,11.43
2022-09-20T22:11:44.808Z,10.80
2022-09-20T22:14:14.036Z,11.00
2022-09-20T22:16:43.326Z,11.77
2022-09-20T22:19:12.901Z,10.10
2022-09-20T22:21:46.841Z,11.00
2022-09-20T22:24:15.321Z,12.23
2022-09-20T22:26:50.501Z,14.07
2022-09-20T22:29:18.744Z,13.65
2022-09-20T22:31:47.730Z,12.60
2022-09-20T22:34:17.440Z,11.45
2022-09-20T22:36:46.627Z,12.77
2022-09-20T22:39:14.843Z,13.52
2022-09-20T22:41:42.969Z,12.65
2022-09-20T22:44:11.145Z,12.73
2022-09-20T22:46:38.987Z,11.85
2022-09-20T22:49:07.827Z,11.75
2022-09-20T22:51:35.709Z,10.82
2022-09-20T22:54:08.837Z,12.32
2022-09-20T22:59:08.616Z,11.52
2022-09-20T23:01:38.758Z,10.67
2022-09-20T23:04:09.162Z,12.43
2022-09-20T23:06:39.461Z,12.38
2022-09-20T23:09:09.415Z,13.13
2022-09-20T23:11:38.077Z,11.75
2022-09-20T23:14:06.303Z,11.95
2022-09-20T23:16:35.809Z,10.48
2022-09-20T23:19:04.937Z,12.50
2022-09-20T23:21:32.713Z,13.00
2022-09-20T23:24:02.161Z,10.57
2022-09-20T23:26:32.067Z,11.95
2022-09-20T23:29:01.430Z,11.30
2022-09-20T23:31:29.916Z,11.23
2022-09-20T23:33:59.341Z,11.40
2022-09-20T23:36:28.938Z,13.68
2022-09-20T23:38:59.982Z,13.50
2022-09-20T23:41:28.544Z,13.75
2022-09-20T23:43:56.086Z,11.50
2022-09-20T23:46:25.364Z,11.38
2022-09-20T23:48:52.948Z,11.45
2022-09-20T23:51:23.602Z,11.05
2022-09-20T23:53:52.271Z,10.25
2022-09-20T23:56:20.935Z,11.00
2022-09-20T23:58:48.815Z,11.00
